Shawnee On Delaware, Pennsylvania
Current Conditions -  °F | °C
As of 2:53 PM on Sunday 23 Nov 2014 (Local Time) from KMPO Reporting Station
Clear Clear  
Wind Chill: 54°   Ceiling: Unl
Heat Index: 54°   Visibility: 10mi
Dew Point: 26°   Wind: 8mph
Humidity: 34%   Direction: 170°S
Pressure: 30.09"   Gusts: NA
Location:  41.01°N, 75.11°W
Report Text: KMPO 231953Z AUTO 17007KT 10SM CLR 12/M03 A3009 RMK AO2 SLP196 T01221033
Loading
Personal Weather Stations






























Interactive Weather Map New forecast layout! Learn more

10-Day Weather Forecast

Advertisements
Track Severe Weather on mobile